Time;durP1;ratioP1;P1;durP2;ratioP2;P2;SDS_P1;SDS_P2;PMS_P1;PMS_P2;Temp;Humidity;BMP_temperature;BMP_pressure;BME280_temperature;BME280_humidity;BME280_pressure;Samples;Min_cycle;Max_cycle;Signal;HPM_P1;HPM_P2
2021/11/12 00:04:10;;;;;;;59.50;31.80;;;;;;;2.71;100.00;101072.66;5094356;28;20048;-71
2021/11/12 00:12:24;;;;;;;55.17;30.70;;;;;;;2.60;100.00;101064.88;5094217;28;20131;-71
2021/11/12 00:14:55;;;;;;;58.83;32.08;;;;;;;2.58;100.00;101050.84;5093785;28;20047;-71
2021/11/12 00:17:28;;;;;;;56.60;31.83;;;;;;;2.53;100.00;101063.25;5094296;28;20538;-70
2021/11/12 00:19:59;;;;;;;54.22;30.10;;;;;;;2.51;100.00;101070.25;5093988;28;20055;-71
2021/11/12 00:22:27;;;;;;;57.80;32.72;;;;;;;2.46;100.00;101062.44;5094148;28;20122;-71
2021/11/12 00:25:01;;;;;;;59.25;31.50;;;;;;;2.42;100.00;101059.91;5093766;28;20048;-71
2021/11/12 00:27:33;;;;;;;56.60;31.65;;;;;;;2.41;100.00;101051.09;5094246;28;20043;-71
2021/11/12 00:30:09;;;;;;;53.80;32.13;;;;;;;2.35;100.00;101052.97;5093818;28;20048;-71
2021/11/12 00:32:51;;;;;;;56.80;32.22;;;;;;;2.40;100.00;101061.66;5093652;28;20050;-71
2021/11/12 00:35:27;;;;;;;57.58;30.70;;;;;;;2.37;100.00;101053.81;5093798;28;20047;-71
2021/11/12 00:37:59;;;;;;;59.42;31.58;;;;;;;2.33;100.00;101050.34;5093652;28;20043;-71
2021/11/12 00:40:30;;;;;;;55.88;30.23;;;;;;;2.48;100.00;101057.16;5093939;28;20390;-71
2021/11/12 00:43:17;;;;;;;54.35;30.40;;;;;;;2.34;100.00;101052.09;5093276;28;20135;-71
2021/11/12 00:45:52;;;;;;;59.17;30.40;;;;;;;2.49;100.00;101051.84;5093543;28;20077;-71
2021/11/12 00:48:23;;;;;;;53.22;30.77;;;;;;;2.40;100.00;101051.13;5093861;28;20044;-71
2021/11/12 00:51:08;;;;;;;55.22;31.58;;;;;;;2.33;100.00;101046.84;5093389;28;20134;-71
2021/11/12 00:53:53;;;;;;;56.90;31.10;;;;;;;2.21;100.00;101040.84;5093413;28;20497;-72
2021/11/12 00:56:23;;;;;;;53.67;30.95;;;;;;;2.20;100.00;101039.09;5093786;28;20053;-72
2021/11/12 00:58:53;;;;;;;56.25;31.27;;;;;;;2.15;100.00;101046.19;5093395;28;20036;-73
2021/11/12 01:01:22;;;;;;;53.40;30.38;;;;;;;2.27;100.00;101046.03;5093233;28;20123;-70
2021/11/12 01:03:52;;;;;;;52.45;30.90;;;;;;;2.19;100.00;101037.38;5093271;28;20487;-70
2021/11/12 01:06:25;;;;;;;52.35;30.13;;;;;;;2.19;100.00;101042.63;5093386;28;20040;-71
2021/11/12 01:08:53;;;;;;;52.65;28.38;;;;;;;2.09;100.00;101041.00;5093206;28;20138;-71
2021/11/12 01:11:24;;;;;;;52.08;29.88;;;;;;;2.01;100.00;101034.97;5093301;28;20050;-71
2021/11/12 01:13:54;;;;;;;56.60;29.73;;;;;;;2.15;100.00;101040.94;5092173;28;20107;-71
2021/11/12 01:16:23;;;;;;;55.53;29.30;;;;;;;2.05;100.00;101038.44;5093347;28;20396;-71
2021/11/12 01:18:51;;;;;;;52.50;29.75;;;;;;;1.97;100.00;101041.16;5093051;28;20469;-76
2021/11/12 01:21:21;;;;;;;54.58;30.00;;;;;;;1.98;100.00;101032.38;5093316;28;20131;-71
2021/11/12 01:23:53;;;;;;;56.50;30.10;;;;;;;2.04;100.00;101027.06;5093567;28;20401;-70
2021/11/12 01:26:23;;;;;;;51.88;29.65;;;;;;;2.01;100.00;101037.59;5093420;28;20127;-71
2021/11/12 01:28:51;;;;;;;52.15;30.05;;;;;;;2.16;100.00;101032.16;5093222;28;20044;-76
2021/11/12 01:31:22;;;;;;;51.17;28.92;;;;;;;2.13;100.00;101034.84;5092887;28;20044;-71
2021/11/12 01:33:50;;;;;;;53.83;30.00;;;;;;;1.99;100.00;101029.72;5093246;28;20048;-71
2021/11/12 01:36:29;;;;;;;51.33;29.83;;;;;;;2.09;100.00;101030.47;5093124;28;20040;-71
2021/11/12 01:39:01;;;;;;;48.13;28.30;;;;;;;2.05;100.00;101028.78;5092872;28;20474;-71
2021/11/12 01:41:32;;;;;;;58.50;30.13;;;;;;;2.04;100.00;101029.69;5093254;28;20101;-71
2021/11/12 01:44:04;;;;;;;51.83;29.15;;;;;;;2.16;100.00;101020.75;5092500;28;20044;-71
2021/11/12 01:46:41;;;;;;;49.10;28.83;;;;;;;2.15;100.00;101019.00;5093069;28;20066;-71
2021/11/12 01:49:16;;;;;;;48.15;28.05;;;;;;;2.11;100.00;101015.53;5092527;28;20078;-72
2021/11/12 01:51:50;;;;;;;51.90;29.35;;;;;;;2.06;100.00;101017.38;5092970;28;20055;-71
2021/11/12 01:59:46;;;;;;;55.17;29.38;;;;;;;1.98;100.00;101022.72;5092838;28;20052;-73
2021/11/12 02:02:14;;;;;;;53.58;29.05;;;;;;;2.07;100.00;101024.38;5092313;28;20570;-73
2021/11/12 02:04:42;;;;;;;52.97;27.40;;;;;;;2.12;100.00;101017.28;5092834;28;20097;-72
2021/11/12 02:07:11;;;;;;;53.85;29.73;;;;;;;2.05;100.00;101018.25;5092563;28;20036;-72
2021/11/12 02:09:42;;;;;;;53.25;28.83;;;;;;;1.91;100.00;101004.41;5092588;28;20063;-72
2021/11/12 02:12:19;;;;;;;50.20;28.25;;;;;;;1.91;100.00;101009.66;5092515;28;20042;-71
2021/11/12 02:14:48;;;;;;;52.45;27.67;;;;;;;2.00;100.00;101006.91;5092895;28;20473;-72
2021/11/12 02:17:19;;;;;;;52.60;29.02;;;;;;;1.98;100.00;101003.44;5092495;28;20485;-72
2021/11/12 02:19:51;;;;;;;55.95;29.20;;;;;;;1.94;100.00;101004.38;5092849;28;20378;-72
2021/11/12 02:22:23;;;;;;;51.92;29.90;;;;;;;1.96;100.00;101013.13;5092483;28;20105;-72
2021/11/12 02:24:55;;;;;;;55.40;29.50;;;;;;;1.91;100.00;101009.66;5092811;28;20545;-71
2021/11/12 02:27:29;;;;;;;53.33;29.17;;;;;;;1.82;100.00;100999.25;5096623;28;20040;-73
2021/11/12 02:29:57;;;;;;;53.25;28.92;;;;;;;1.88;100.00;100993.94;5096152;28;20391;-74
2021/11/12 02:32:28;;;;;;;54.00;28.88;;;;;;;1.83;100.00;101004.50;5096411;28;20083;-73
2021/11/12 02:35:03;;;;;;;54.90;28.10;;;;;;;1.78;100.00;101002.81;5095677;28;20048;-73
2021/11/12 02:37:34;;;;;;;51.47;28.80;;;;;;;1.75;100.00;101005.50;5095113;28;20056;-72
2021/11/12 02:40:04;;;;;;;53.70;28.92;;;;;;;1.81;100.00;101002.78;5095723;28;20071;-73
2021/11/12 02:42:33;;;;;;;53.70;29.60;;;;;;;1.64;100.00;101001.25;5096419;28;20048;-72
2021/11/12 02:45:01;;;;;;;51.72;28.73;;;;;;;1.68;100.00;101000.31;5095473;28;20065;-72
2021/11/12 02:47:29;;;;;;;53.70;30.08;;;;;;;1.69;100.00;101004.66;5095724;28;20546;-72
2021/11/12 02:49:58;;;;;;;55.95;29.63;;;;;;;1.75;100.00;101002.88;5095672;28;20047;-76
2021/11/12 02:52:27;;;;;;;52.95;28.75;;;;;;;1.67;100.00;100990.69;5095689;28;20556;-73
2021/11/12 02:54:57;;;;;;;54.97;28.90;;;;;;;1.57;100.00;101002.19;5096101;28;20055;-73
2021/11/12 02:57:28;;;;;;;56.53;29.83;;;;;;;1.55;100.00;100998.72;5096231;28;20047;-72
2021/11/12 02:59:59;;;;;;;57.92;31.10;;;;;;;1.50;100.00;101000.50;5095907;28;20048;-73
2021/11/12 03:02:27;;;;;;;54.95;29.73;;;;;;;1.37;100.00;101001.53;5096259;28;20142;-73
2021/11/12 03:04:55;;;;;;;54.63;29.42;;;;;;;1.55;100.00;100997.84;5095703;28;20526;-72
2021/11/12 03:07:24;;;;;;;57.00;29.52;;;;;;;1.50;100.00;100995.25;5095348;28;20048;-70
2021/11/12 03:09:56;;;;;;;56.38;29.42;;;;;;;1.55;100.00;100995.22;5095682;28;20043;-71
2021/11/12 03:12:25;;;;;;;54.17;30.77;;;;;;;1.49;100.00;100993.50;5095483;28;20506;-71
2021/11/12 03:14:54;;;;;;;51.08;29.13;;;;;;;1.54;100.00;100998.72;5095500;28;20401;-71
2021/11/12 03:17:22;;;;;;;55.58;29.73;;;;;;;1.59;100.00;100997.78;5094892;28;20123;-71
2021/11/12 03:19:51;;;;;;;56.47;30.23;;;;;;;1.51;100.00;100993.50;5095160;28;20040;-71
2021/11/12 03:22:22;;;;;;;56.42;29.83;;;;;;;1.58;100.00;100990.78;5095017;28;20389;-71
2021/11/12 03:24:54;;;;;;;50.53;29.52;;;;;;;1.59;100.00;100997.78;5095348;28;20036;-71
2021/11/12 03:27:27;;;;;;;54.17;29.33;;;;;;;1.41;100.00;100979.59;5094744;28;20512;-71
2021/11/12 03:47:15;;;;;;;51.92;28.10;;;;;;;1.21;100.00;100994.69;5094770;28;20036;-71
2021/11/12 03:50:13;;;;;;;;;;;;;;;1.21;100.00;101000.81;5095319;28;20366;-72
2021/11/12 04:03:51;;;;;;;50.88;27.98;;;;;;;1.26;100.00;100996.41;5094151;28;20058;-71
2021/11/12 04:06:30;;;;;;;51.28;27.90;;;;;;;1.15;100.00;100991.22;5094507;28;20472;-71
2021/11/12 04:17:38;;;;;;;50.08;28.75;;;;;;;0.98;100.00;100993.16;5095387;28;20040;-71
2021/11/12 05:10:02;;;;;;;48.38;26.65;;;;;;;0.88;100.00;100994.13;5093114;28;20089;-72
2021/11/12 05:46:16;;;;;;;45.25;25.10;;;;;;;0.71;100.00;101003.91;5092857;28;20490;-69
2021/11/12 05:51:36;;;;;;;43.08;24.42;;;;;;;0.72;100.00;101005.66;5092691;28;20036;-70
2021/11/12 05:56:56;;;;;;;43.97;25.30;;;;;;;0.74;100.00;100996.88;5093048;28;20048;-71
2021/11/12 05:59:25;;;;;;;43.88;24.88;;;;;;;0.82;100.00;101004.69;5092737;28;20439;-69
2021/11/12 06:01:55;;;;;;;44.17;24.83;;;;;;;0.80;100.00;100999.44;5096560;28;20118;-70
2021/11/12 06:04:24;;;;;;;43.03;25.08;;;;;;;0.82;100.00;101008.19;5096196;28;20036;-70
2021/11/12 06:06:52;;;;;;;45.88;25.27;;;;;;;0.74;100.00;101002.13;5096639;28;20044;-70
2021/11/12 06:09:21;;;;;;;45.35;25.33;;;;;;;0.69;100.00;101006.56;5096291;28;20469;-71
2021/11/12 06:11:53;;;;;;;44.50;25.33;;;;;;;0.60;100.00;101004.00;5096605;28;20048;-70
2021/11/12 06:14:25;;;;;;;49.72;25.40;;;;;;;0.71;100.00;101001.28;5096279;28;20051;-69
2021/11/12 06:16:53;;;;;;;43.75;24.70;;;;;;;0.70;100.00;100996.91;5096463;28;20040;-70
2021/11/12 06:19:24;;;;;;;44.47;24.52;;;;;;;0.83;100.00;101009.91;5095988;28;20040;-71
2021/11/12 06:21:53;;;;;;;43.08;25.33;;;;;;;0.97;100.00;101007.19;5096213;28;20040;-70
2021/11/12 06:24:21;;;;;;;46.28;25.90;;;;;;;0.89;100.00;100998.50;5096046;28;20378;-71
2021/11/12 06:26:54;;;;;;;45.53;26.05;;;;;;;0.96;100.00;101000.16;5096308;28;20040;-70
2021/11/12 06:29:24;;;;;;;47.92;25.35;;;;;;;0.90;100.00;101002.00;5096018;28;20043;-71
2021/11/12 06:31:52;;;;;;;45.13;25.15;;;;;;;0.95;100.00;100997.56;5096223;28;20047;-71
2021/11/12 06:34:20;;;;;;;44.28;25.35;;;;;;;0.89;100.00;100992.38;5095815;28;20044;-72
2021/11/12 06:36:50;;;;;;;45.95;25.90;;;;;;;0.96;100.00;100994.91;5095970;28;20048;-71
2021/11/12 06:39:19;;;;;;;48.72;25.95;;;;;;;1.14;100.00;100999.13;5095610;28;20044;-68
2021/11/12 06:41:56;;;;;;;48.35;26.00;;;;;;;1.26;100.00;100998.16;5095913;28;20043;-70
2021/11/12 06:50:00;;;;;;;47.40;27.23;;;;;;;1.40;100.00;101012.88;5096044;28;20040;-71
2021/11/12 06:52:31;;;;;;;51.13;27.23;;;;;;;1.43;100.00;101002.31;5095549;28;20404;-71
2021/11/12 06:55:02;;;;;;;49.28;27.42;;;;;;;1.47;100.00;101000.56;5095962;28;20052;-72
2021/11/12 06:57:30;;;;;;;44.95;26.13;;;;;;;1.52;100.00;101008.38;5094408;28;20393;-70
2021/11/12 07:00:00;;;;;;;47.50;26.02;;;;;;;1.71;100.00;101002.03;5095511;28;20039;-71
2021/11/12 07:02:28;;;;;;;46.42;26.25;;;;;;;1.86;100.00;101011.50;5095038;28;20036;-68
2021/11/12 07:04:57;;;;;;;48.97;24.40;;;;;;;1.79;100.00;101015.09;5095348;28;20052;-71
2021/11/12 07:07:29;;;;;;;45.38;26.60;;;;;;;2.02;100.00;101013.03;5094984;28;20068;-71
2021/11/12 07:09:58;;;;;;;46.42;26.85;;;;;;;2.02;100.00;101010.38;5097889;28;20044;-70
2021/11/12 07:12:27;;;;;;;46.28;26.00;;;;;;;2.05;100.00;101012.13;5094078;28;20046;-70
2021/11/12 07:14:55;;;;;;;47.70;26.33;;;;;;;2.14;100.00;101015.50;5095114;28;20047;-68
2021/11/12 07:17:24;;;;;;;46.33;24.80;;;;;;;2.30;100.00;101018.78;5094967;28;20093;-70
2021/11/12 07:19:52;;;;;;;47.20;25.35;;;;;;;2.33;100.00;101015.25;5095184;28;20036;-70
2021/11/12 07:22:21;;;;;;;49.33;26.40;;;;;;;2.45;100.00;101022.97;5094774;28;20172;-69
2021/11/12 07:24:49;;;;;;;49.80;26.13;;;;;;;2.42;100.00;101012.50;5095340;28;20066;-69
2021/11/12 07:27:17;;;;;;;54.80;27.92;;;;;;;2.50;100.00;101013.22;5095006;28;20039;-73
2021/11/12 07:30:11;;;;;;;50.72;27.98;;;;;;;2.59;100.00;101011.31;5094082;28;20043;-70
2021/11/12 07:32:42;;;;;;;50.72;26.90;;;;;;;2.58;100.00;101013.97;5089293;28;20547;-68
2021/11/12 07:35:12;;;;;;;49.50;26.73;;;;;;;2.63;100.00;101016.56;5094877;28;20051;-69
2021/11/12 07:37:40;;;;;;;52.17;27.10;;;;;;;2.62;100.00;101014.81;5094280;28;20113;-68
2021/11/12 07:40:17;;;;;;;47.55;24.13;;;;;;;2.85;100.00;101013.56;5093927;28;20048;-68
2021/11/12 07:42:56;;;;;;;47.58;25.45;;;;;;;2.88;100.00;101013.50;5094349;28;20040;-68
2021/11/12 07:45:36;;;;;;;49.17;25.00;;;;;;;2.97;100.00;101012.47;5093568;28;20044;-70
2021/11/12 07:48:06;;;;;;;46.63;25.77;;;;;;;2.97;100.00;101016.88;5094012;28;20044;-68
2021/11/12 07:50:36;;;;;;;46.47;24.50;;;;;;;2.95;100.00;101016.91;5093754;28;20082;-71
2021/11/12 07:53:05;;;;;;;44.90;23.83;;;;;;;3.10;100.00;101015.78;5093698;28;20078;-69
2021/11/12 07:55:33;;;;;;;46.67;25.45;;;;;;;3.15;100.00;101027.97;5093578;28;20109;-71
2021/11/12 07:58:02;;;;;;;45.95;24.45;;;;;;;3.20;100.00;101019.13;5093606;28;20047;-69
2021/11/12 08:00:31;;;;;;;46.90;25.90;;;;;;;3.14;100.00;101026.25;5093100;28;20040;-68
2021/11/12 08:02:59;;;;;;;44.22;24.90;;;;;;;3.27;100.00;101020.75;5093488;28;20048;-69
2021/11/12 08:05:31;;;;;;;43.53;25.02;;;;;;;3.33;100.00;101024.16;5093300;28;20093;-69
2021/11/12 08:08:05;;;;;;;44.92;24.98;;;;;;;3.38;100.00;101024.06;5094025;28;20059;-68
2021/11/12 08:10:38;;;;;;;46.35;24.60;;;;;;;3.42;100.00;101023.97;5093191;28;20040;-70
2021/11/12 08:13:11;;;;;;;46.90;23.42;;;;;;;3.52;100.00;101023.81;5093425;28;20046;-70
2021/11/12 08:15:49;;;;;;;45.28;22.70;;;;;;;3.86;100.00;101027.53;5093067;28;20036;-69
2021/11/12 08:18:35;;;;;;;44.63;23.55;;;;;;;3.80;100.00;101021.50;5093411;28;20090;-70
2021/11/12 08:21:07;;;;;;;40.72;22.20;;;;;;;3.88;100.00;101022.22;5093122;28;20114;-71
2021/11/12 08:23:59;;;;;;;40.10;22.08;;;;;;;3.94;100.00;101017.66;5092963;28;20089;-67
2021/11/12 08:34:57;;;;;;;36.55;19.52;;;;;;;4.30;100.00;101021.28;5075206;28;20083;-71
2021/11/12 08:37:40;;;;;;;36.97;20.33;;;;;;;4.42;100.00;101030.72;5092749;28;20036;-74
2021/11/12 08:40:16;;;;;;;39.42;19.35;;;;;;;4.51;100.00;101027.00;5092715;28;20047;-71
2021/11/12 08:42:48;;;;;;;35.42;19.92;;;;;;;4.53;100.00;101019.91;5092555;28;20044;-71
2021/11/12 08:45:20;;;;;;;38.13;20.85;;;;;;;4.64;100.00;101017.03;5093387;28;20157;-70
2021/11/12 08:47:52;;;;;;;35.03;20.05;;;;;;;4.78;100.00;101017.56;5092513;28;20040;-72
2021/11/12 08:50:22;;;;;;;32.88;19.55;;;;;;;4.86;100.00;101021.75;5092361;28;20119;-71
2021/11/12 08:52:54;;;;;;;36.85;19.20;;;;;;;5.06;100.00;101021.25;5091079;28;20405;-68
2021/11/12 08:55:26;;;;;;;34.67;17.87;;;;;;;4.99;100.00;101019.66;5093023;28;20533;-69
2021/11/12 08:57:56;;;;;;;38.40;19.92;;;;;;;5.11;100.00;101013.19;5092831;28;20044;-71
2021/11/12 09:00:26;;;;;;;33.50;18.60;;;;;;;5.09;100.00;101010.59;5091987;28;20051;-72
2021/11/12 09:02:55;;;;;;;31.30;18.23;;;;;;;5.11;100.00;101013.19;5092792;28;20085;-70
2021/11/12 09:05:23;;;;;;;32.63;18.30;;;;;;;5.10;100.00;101006.16;5092717;28;20496;-70
2021/11/12 09:07:54;;;;;;;33.90;18.90;;;;;;;5.17;100.00;101008.63;5092458;28;20127;-68
2021/11/12 09:10:25;;;;;;;31.63;17.30;;;;;;;5.30;100.00;101003.00;5092082;28;20040;-70
2021/11/12 09:12:57;;;;;;;32.88;17.85;;;;;;;5.41;100.00;101009.75;5092973;28;20376;-70
2021/11/12 09:15:29;;;;;;;28.20;15.70;;;;;;;5.74;100.00;101007.94;5091500;28;20048;-69
2021/11/12 09:17:59;;;;;;;32.05;17.95;;;;;;;5.71;100.00;101000.09;5092843;28;20047;-70
2021/11/12 09:20:30;;;;;;;34.20;18.87;;;;;;;5.54;100.00;101002.34;5091558;28;20047;-70
2021/11/12 09:23:01;;;;;;;32.65;17.48;;;;;;;5.76;100.00;101002.59;5091310;28;20083;-69
2021/11/12 09:25:29;;;;;;;32.63;17.20;;;;;;;5.92;100.00;101003.09;5091938;28;20071;-72
2021/11/12 09:27:57;;;;;;;32.45;16.95;;;;;;;5.82;100.00;100997.16;5092018;28;20477;-69
2021/11/12 09:30:35;;;;;;;31.33;16.15;;;;;;;5.98;100.00;100992.28;5091268;28;20051;-69
2021/11/12 09:33:06;;;;;;;28.13;16.25;;;;;;;5.97;100.00;100990.56;5090359;28;20047;-68
2021/11/12 09:35:35;;;;;;;29.08;17.13;;;;;;;5.94;100.00;100982.72;5090515;28;20040;-68
2021/11/12 09:38:05;;;;;;;33.97;18.25;;;;;;;5.83;100.00;100983.00;5096602;28;20046;-67
2021/11/12 09:40:33;;;;;;;31.73;18.25;;;;;;;5.68;100.00;100973.69;5095349;28;20564;-69
2021/11/12 09:43:02;;;;;;;33.63;18.58;;;;;;;5.67;100.00;100976.41;5094653;28;20110;-67
2021/11/12 09:45:31;;;;;;;30.95;18.17;;;;;;;5.80;100.00;100969.00;5095634;28;20094;-72
2021/11/12 09:47:59;;;;;;;33.33;18.60;;;;;;;6.11;100.00;100968.97;5095562;28;20057;-67
2021/11/12 09:50:30;;;;;;;31.48;18.48;;;;;;;6.08;100.00;100966.41;5094982;28;20076;-67
2021/11/12 09:53:01;;;;;;;;;;;;;;;6.29;100.00;100966.63;5097206;28;20105;-67
2021/11/12 09:55:31;;;;;;;33.28;18.60;;;;;;;6.12;100.00;100957.47;5095656;28;19985;-68
2021/11/12 09:58:01;;;;;;;33.83;18.52;;;;;;;6.02;100.00;100951.56;5095511;28;20044;-69
2021/11/12 10:00:32;;;;;;;33.17;19.15;;;;;;;6.19;100.00;100949.28;5095248;28;20119;-70
2021/11/12 10:03:02;;;;;;;34.55;17.90;;;;;;;6.41;100.00;100946.81;5095346;28;20131;-69
2021/11/12 10:05:34;;;;;;;31.55;18.55;;;;;;;6.56;100.00;100940.13;5095827;28;20127;-68
2021/11/12 10:08:18;;;;;;;32.05;18.52;;;;;;;6.64;100.00;100932.81;5095622;28;20047;-69
2021/11/12 10:10:50;;;;;;;30.98;17.88;;;;;;;6.68;100.00;100931.81;5094050;28;20373;-67
2021/11/12 10:13:25;;;;;;;32.83;18.00;;;;;;;6.51;100.00;100923.53;5092031;28;20062;-68
2021/11/12 10:16:02;;;;;;;36.30;18.48;;;;;;;6.47;100.00;100929.88;5095110;28;20048;-67
2021/11/12 10:18:31;;;;;;;34.72;18.10;;;;;;;6.71;100.00;100934.34;5094587;28;20043;-69
2021/11/12 10:21:01;;;;;;;27.55;16.58;;;;;;;6.89;100.00;100922.25;5082018;28;20048;-67
2021/11/12 10:23:35;;;;;;;29.63;17.45;;;;;;;6.69;100.00;100907.03;5095637;28;20048;-67
2021/11/12 10:26:06;;;;;;;30.63;17.63;;;;;;;6.58;100.00;100899.44;5094094;28;20044;-68
2021/11/12 10:28:40;;;;;;;32.17;18.17;;;;;;;6.46;100.00;100898.97;5077571;28;20036;-69
2021/11/12 10:31:17;;;;;;;35.90;18.25;;;;;;;6.62;100.00;100892.25;5094390;28;20040;-67
2021/11/12 10:33:50;;;;;;;31.20;18.73;;;;;;;6.95;100.00;100887.56;5094806;28;20123;-66
2021/11/12 10:36:18;;;;;;;31.77;18.17;;;;;;;7.01;100.00;100886.47;5094724;28;20040;-69
2021/11/12 10:38:49;;;;;;;35.13;18.70;;;;;;;6.81;100.00;100882.75;5094286;28;20036;-69
2021/11/12 10:41:24;;;;;;;35.45;18.45;;;;;;;6.72;100.00;100883.06;5094785;28;20121;-68
2021/11/12 10:43:54;;;;;;;29.73;17.52;;;;;;;7.15;100.00;100877.13;5091873;28;20447;-68
2021/11/12 10:46:38;;;;;;;29.35;17.55;;;;;;;7.03;100.00;100874.88;5093885;28;20473;-67
2021/11/12 10:49:29;;;;;;;31.95;19.08;;;;;;;6.76;100.00;100876.75;5094334;28;20044;-67
2021/11/12 10:51:59;;;;;;;33.42;19.10;;;;;;;6.71;100.00;100868.06;5094392;28;20363;-67
2021/11/12 10:54:56;;;;;;;32.35;17.77;;;;;;;7.28;100.00;100869.56;5094023;28;20052;-65
2021/11/12 10:57:32;;;;;;;28.58;17.20;;;;;;;7.47;100.00;100860.00;5094417;28;20040;-68
2021/11/12 11:00:11;;;;;;;30.58;17.13;;;;;;;7.47;100.00;100860.00;5094120;28;20044;-69
2021/11/12 11:02:42;;;;;;;31.13;17.30;;;;;;;7.33;100.00;100850.81;5078048;28;20036;-67
2021/11/12 11:05:12;;;;;;;31.92;17.80;;;;;;;7.06;100.00;100855.38;5092220;28;20532;-67
2021/11/12 11:07:41;;;;;;;33.03;18.13;;;;;;;7.06;100.00;100848.28;5093668;28;20115;-67
2021/11/12 11:10:22;;;;;;;33.55;18.65;;;;;;;7.08;100.00;100848.22;5093859;28;20052;-67
2021/11/12 11:12:52;;;;;;;31.75;18.05;;;;;;;7.11;100.00;100840.13;5093668;28;20123;-68
2021/11/12 11:15:27;;;;;;;31.33;16.98;;;;;;;7.13;100.00;100843.59;5092975;28;20055;-67
2021/11/12 11:18:24;;;;;;;28.73;17.15;;;;;;;7.33;100.00;100843.72;5090887;28;20040;-66
2021/11/12 11:21:00;;;;;;;27.13;16.60;;;;;;;7.27;100.00;100830.69;5092351;28;20046;-71
2021/11/12 11:23:31;;;;;;;28.58;17.40;;;;;;;7.35;100.00;100843.69;5094028;28;20051;-69
2021/11/12 11:26:01;;;;;;;30.33;17.20;;;;;;;7.40;100.00;100836.38;5093049;28;20052;-68
2021/11/12 11:28:33;;;;;;;27.13;16.45;;;;;;;7.42;100.00;100834.53;5093479;28;20449;-67
2021/11/12 11:31:03;;;;;;;27.80;16.60;;;;;;;7.90;100.00;100826.44;5081539;28;20043;-68
2021/11/12 11:33:32;;;;;;;29.35;16.50;;;;;;;7.92;100.00;100829.94;5093271;28;20036;-68
2021/11/12 11:36:03;;;;;;;27.95;16.83;;;;;;;7.89;100.00;100824.72;5093167;28;20109;-68
2021/11/12 11:38:34;;;;;;;29.45;16.00;;;;;;;7.65;100.00;100825.72;5093460;28;20036;-67
2021/11/12 11:41:05;;;;;;;25.63;15.75;;;;;;;7.54;100.00;100818.16;5077535;28;20048;-67
2021/11/12 11:43:35;;;;;;;26.25;15.63;;;;;;;7.66;100.00;100819.47;5092598;28;20098;-69
2021/11/12 11:46:07;;;;;;;26.27;15.80;;;;;;;7.55;100.00;100813.72;5093758;28;20048;-67
2021/11/12 11:48:37;;;;;;;28.60;15.43;;;;;;;7.66;100.00;100809.72;5092585;28;20091;-72
2021/11/12 11:51:29;;;;;;;30.45;17.13;;;;;;;7.66;100.00;100809.72;5093339;28;20111;-68
2021/11/12 11:54:03;;;;;;;28.43;16.27;;;;;;;7.62;100.00;100801.91;5092920;28;20055;-68
2021/11/12 11:56:34;;;;;;;28.05;15.90;;;;;;;7.64;100.00;100802.75;5092714;28;20801;-67
2021/11/12 11:59:10;;;;;;;25.90;15.98;;;;;;;7.59;100.00;100802.03;5092437;28;20443;-69
2021/11/12 12:01:48;;;;;;;29.50;16.60;;;;;;;7.94;100.00;100796.19;5092761;28;20127;-69
2021/11/12 12:04:38;;;;;;;26.67;16.00;;;;;;;7.96;100.00;100793.47;5088981;28;20044;-67
2021/11/12 12:07:17;;;;;;;28.85;15.95;;;;;;;7.84;100.00;100784.22;5077904;28;20150;-67
2021/11/12 12:09:49;;;;;;;25.23;15.25;;;;;;;8.35;100.00;100782.16;5092756;28;20051;-70
2021/11/12 12:12:40;;;;;;;26.33;14.38;;;;;;;8.79;100.00;100785.56;5093394;28;20055;-67
2021/11/12 12:15:43;;;;;;;25.80;15.48;;;;;;;8.43;100.00;100777.38;5077767;28;20622;-67
2021/11/12 12:18:23;;;;;;;24.35;14.90;;;;;;;8.36;100.00;100775.91;5092065;28;20546;-69
2021/11/12 12:31:16;;;;;;;26.50;14.90;;;;;;;8.22;100.00;100765.84;5092476;28;20047;-69
2021/11/12 13:23:13;;;;;;;21.73;12.82;;;;;;;8.23;97.44;100728.56;5089597;28;20504;-69
2021/11/12 13:25:45;;;;;;;25.58;14.02;;;;;;;8.21;97.44;100735.75;5091338;28;20051;-68
2021/11/12 13:28:17;;;;;;;30.15;14.77;;;;;;;8.16;98.98;100737.72;5091774;28;20052;-68
2021/11/12 13:30:48;;;;;;;22.98;14.38;;;;;;;8.03;99.44;100731.19;5090565;28;20052;-68
2021/11/12 13:33:35;;;;;;;20.70;12.55;;;;;;;8.10;97.32;100729.13;5090526;28;20191;-68
2021/11/12 13:36:11;;;;;;;21.70;12.82;;;;;;;8.07;98.22;100738.09;5091925;28;20115;-68
2021/11/12 13:38:44;;;;;;;20.20;11.23;;;;;;;8.25;94.66;100732.00;5091168;28;20043;-65
2021/11/12 13:41:16;;;;;;;21.08;11.50;;;;;;;8.16;95.17;100731.53;5095668;28;20051;-66
2021/11/12 13:43:48;;;;;;;20.42;12.05;;;;;;;8.20;95.07;100727.81;5089879;28;20509;-67
2021/11/12 13:46:17;;;;;;;23.42;12.52;;;;;;;8.19;95.09;100726.09;5091490;28;20048;-69
2021/11/12 13:48:51;;;;;;;19.77;10.80;;;;;;;8.56;92.38;100725.38;5090809;28;20128;-69
2021/11/12 13:51:26;;;;;;;19.55;11.48;;;;;;;9.02;89.90;100718.84;5090419;28;20071;-70
2021/11/12 13:53:55;;;;;;;19.35;10.27;;;;;;;8.67;91.28;100722.25;5082257;28;20076;-68
2021/11/12 13:56:25;;;;;;;17.58;12.23;;;;;;;8.73;91.50;100725.50;5091607;28;20097;-67
2021/11/12 13:59:11;;;;;;;19.42;11.48;;;;;;;8.70;91.52;100720.34;5091041;28;20072;-69
2021/11/12 14:01:40;;;;;;;18.33;11.40;;;;;;;8.60;92.54;100716.34;5090464;28;20040;-71
2021/11/12 14:04:23;;;;;;;20.83;11.98;;;;;;;8.46;93.60;100714.28;5088118;28;20058;-70
2021/11/12 14:06:53;;;;;;;18.23;11.10;;;;;;;8.42;93.87;100712.72;5091315;28;20558;-69
2021/11/12 14:09:25;;;;;;;20.65;11.50;;;;;;;8.22;95.62;100710.03;5090995;28;20040;-70
2021/11/12 14:12:12;;;;;;;20.95;12.32;;;;;;;8.08;96.48;100715.06;5081991;28;20033;-70
2021/11/12 14:14:42;;;;;;;20.80;12.40;;;;;;;8.05;96.81;100724.03;5091126;28;20492;-69
2021/11/12 14:17:26;;;;;;;24.48;12.27;;;;;;;8.07;96.34;100713.31;5091641;28;20477;-69
2021/11/12 14:20:23;;;;;;;21.48;11.65;;;;;;;8.26;93.46;100715.13;5081904;28;20032;-69
2021/11/12 14:23:04;;;;;;;18.10;9.52;;;;;;;8.27;91.75;100714.19;5094214;28;20043;-67
2021/11/12 14:26:02;;;;;;;17.52;9.20;;;;;;;8.18;91.20;100716.38;5094903;28;20044;-69
2021/11/12 14:28:41;;;;;;;18.35;9.68;;;;;;;8.24;89.94;100714.34;5095073;28;20055;-70
2021/11/12 14:31:18;;;;;;;17.73;9.75;;;;;;;8.13;91.74;100713.94;5087028;28;20052;-70
2021/11/12 14:34:05;;;;;;;16.60;10.05;;;;;;;8.09;91.49;100714.97;5092557;28;20059;-71
2021/11/12 14:36:42;;;;;;;16.38;8.50;;;;;;;8.03;90.86;100708.16;5094728;28;20046;-70
2021/11/12 14:39:23;;;;;;;15.98;8.32;;;;;;;8.00;90.79;100710.91;5094542;28;20051;-69
2021/11/12 14:42:07;;;;;;;17.10;9.35;;;;;;;7.91;90.05;100699.81;5094093;28;20040;-68
2021/11/12 14:45:07;;;;;;;17.80;8.73;;;;;;;7.88;90.38;100703.47;5093953;28;20664;-71
2021/11/12 14:47:43;;;;;;;13.55;7.65;;;;;;;8.22;88.53;100702.06;5093686;28;20044;-76
2021/11/12 14:50:30;;;;;;;16.10;7.22;;;;;;;7.99;89.37;100695.91;5094265;28;20093;-68
2021/11/12 14:53:13;;;;;;;19.05;8.35;;;;;;;8.02;89.42;100689.63;5086518;28;20052;-68
2021/11/12 14:55:43;;;;;;;15.18;7.93;;;;;;;7.86;90.49;100702.69;5094271;28;20048;-70
2021/11/12 14:58:14;;;;;;;15.10;8.20;;;;;;;7.78;91.22;100698.63;5094182;28;20067;-69
2021/11/12 15:00:44;;;;;;;15.93;8.32;;;;;;;7.68;91.68;100699.00;5093621;28;20058;-70
2021/11/12 15:03:13;;;;;;;17.80;8.38;;;;;;;7.55;93.58;100705.75;5092380;28;20085;-70
2021/11/12 15:05:42;;;;;;;16.33;9.25;;;;;;;7.43;94.11;100703.56;5088764;28;20040;-69
2021/11/12 15:08:18;;;;;;;16.38;9.15;;;;;;;7.34;95.29;100704.81;5088494;28;20044;-70
2021/11/12 15:10:47;;;;;;;21.70;10.30;;;;;;;7.29;95.89;100712.06;5094489;28;20047;-70
2021/11/12 15:13:17;;;;;;;20.25;10.18;;;;;;;7.19;97.35;100710.72;5094553;28;20040;-68